createdAt,value
2023-02-22T00:01:03.046Z,73.80
2023-02-22T00:03:35.117Z,73.30
2023-02-22T00:06:05.121Z,74.10
2023-02-22T00:08:35.613Z,73.70
2023-02-22T00:11:08.525Z,73.30
2023-02-22T00:13:37.013Z,73.60
2023-02-22T00:16:04.722Z,73.60
2023-02-22T00:18:31.526Z,74.10
2023-02-22T00:21:00.688Z,73.80
2023-02-22T00:23:30.166Z,74.20
2023-02-22T00:25:58.488Z,74.40
2023-02-22T00:28:26.239Z,74.30
2023-02-22T00:30:55.021Z,74.20
2023-02-22T00:33:22.645Z,74.30
2023-02-22T00:35:50.095Z,74.60
2023-02-22T00:38:18.928Z,74.70
2023-02-22T00:40:46.109Z,74.90
2023-02-22T00:43:13.813Z,75.50
2023-02-22T00:45:41.102Z,76.30
2023-02-22T00:48:09.379Z,76.80
2023-02-22T00:50:36.612Z,77.40
2023-02-22T00:53:04.897Z,78.10
2023-02-22T00:55:35.056Z,78.70
2023-02-22T00:58:02.377Z,79.30
2023-02-22T01:00:37.295Z,79.80
2023-02-22T01:03:06.303Z,80.70
2023-02-22T01:05:35.284Z,81.30
2023-02-22T01:08:02.995Z,82.10
2023-02-22T01:10:31.336Z,82.90
2023-02-22T01:13:00.647Z,83.60
2023-02-22T01:15:30.932Z,84.60
2023-02-22T01:17:59.895Z,85.70
2023-02-22T01:20:28.257Z,86.80
2023-02-22T01:22:58.333Z,87.40
2023-02-22T01:25:28.381Z,88.40
2023-02-22T01:27:56.916Z,89.50
2023-02-22T01:30:28.475Z,90.10
2023-02-22T01:32:55.902Z,90.50
2023-02-22T01:35:27.806Z,90.90
2023-02-22T01:37:55.510Z,91.20
2023-02-22T01:40:42.112Z,91.90
2023-02-22T01:43:22.075Z,92.30
2023-02-22T01:46:01.134Z,92.10
2023-02-22T01:48:47.844Z,92.10
2023-02-22T01:51:21.449Z,91.30
2023-02-22T01:53:53.723Z,90.40
2023-02-22T01:56:23.417Z,90.90
2023-02-22T01:58:55.604Z,91.80
2023-02-22T02:01:24.280Z,93.30
2023-02-22T02:03:58.340Z,93.70
2023-02-22T02:06:27.661Z,94.00
2023-02-22T02:09:13.390Z,94.70
2023-02-22T02:11:42.139Z,94.80
2023-02-22T02:14:10.830Z,94.90
2023-02-22T02:16:41.801Z,94.30
2023-02-22T02:19:22.592Z,92.90
2023-02-22T02:22:15.955Z,91.70
2023-02-22T02:25:05.303Z,92.00
2023-02-22T02:28:00.334Z,91.40
2023-02-22T02:31:14.859Z,91.50
2023-02-22T02:34:00.191Z,92.10
2023-02-22T02:36:39.335Z,91.70
2023-02-22T02:39:16.447Z,91.60
2023-02-22T02:41:49.565Z,92.10
2023-02-22T02:44:37.999Z,92.60
2023-02-22T02:47:11.258Z,95.00
2023-02-22T02:49:47.589Z,96.60
2023-02-22T02:52:18.850Z,97.30
2023-02-22T02:54:49.032Z,97.30
2023-02-22T02:57:16.100Z,97.20
2023-02-22T02:59:43.526Z,97.40
2023-02-22T03:02:29.129Z,98.00
2023-02-22T03:05:14.413Z,98.00
2023-02-22T03:08:07.812Z,97.90
2023-02-22T03:11:04.205Z,98.60
2023-02-22T03:13:55.443Z,99.20
2023-02-22T03:16:33.604Z,99.90
2023-02-22T03:19:08.932Z,99.40
2023-02-22T03:22:02.562Z,99.90
2023-02-22T03:24:53.008Z,99.90
2023-02-22T03:27:28.805Z,99.90
2023-02-22T03:30:03.979Z,99.90
2023-02-22T03:32:37.736Z,99.90
2023-02-22T03:35:30.719Z,99.90
2023-02-22T03:38:02.920Z,99.90
2023-02-22T03:40:45.208Z,99.90
2023-02-22T03:43:25.062Z,99.90
2023-02-22T03:45:55.732Z,99.90
2023-02-22T03:48:37.703Z,99.90
2023-02-22T03:51:06.712Z,99.90
2023-02-22T03:53:34.579Z,99.90
2023-02-22T03:56:05.579Z,99.90
2023-02-22T03:58:36.746Z,99.90
2023-02-22T04:01:03.981Z,99.90
2023-02-22T04:03:31.365Z,99.90
2023-02-22T04:05:58.663Z,99.90
2023-02-22T04:08:26.069Z,99.90
2023-02-22T04:10:53.744Z,99.90
2023-02-22T04:13:24.183Z,99.90
2023-02-22T04:15:53.634Z,99.90
2023-02-22T04:18:21.260Z,99.90
2023-02-22T04:20:49.372Z,99.90
2023-02-22T04:23:26.972Z,99.90
2023-02-22T04:25:54.393Z,99.90
2023-02-22T04:28:22.516Z,99.90
2023-02-22T04:30:59.152Z,99.90
2023-02-22T04:33:27.249Z,99.90
2023-02-22T04:35:54.192Z,99.90
2023-02-22T04:38:21.110Z,99.90
2023-02-22T04:40:48.285Z,99.90
2023-02-22T04:43:15.261Z,99.90
2023-02-22T04:45:42.491Z,99.90
2023-02-22T04:48:09.550Z,99.90
2023-02-22T04:50:36.578Z,99.90
2023-02-22T04:53:04.137Z,99.90
2023-02-22T04:55:31.067Z,99.90
2023-02-22T04:57:58.100Z,99.90
2023-02-22T05:00:25.201Z,99.90
2023-02-22T05:02:56.756Z,99.90
2023-02-22T05:05:23.915Z,99.90
2023-02-22T05:07:50.979Z,99.90
2023-02-22T05:10:18.120Z,99.90
2023-02-22T05:12:45.084Z,99.90
2023-02-22T05:15:17.236Z,99.90
2023-02-22T05:17:44.201Z,99.90
2023-02-22T05:20:21.794Z,99.90
2023-02-22T05:22:48.845Z,99.90
2023-02-22T05:25:15.897Z,99.90
2023-02-22T05:27:42.940Z,99.90
2023-02-22T05:30:11.973Z,99.90
2023-02-22T05:32:39.072Z,99.90
2023-02-22T05:35:06.629Z,99.90
2023-02-22T05:37:33.555Z,99.90
2023-02-22T05:40:00.568Z,99.90
2023-02-22T05:42:27.486Z,99.90
2023-02-22T05:44:54.400Z,99.90
2023-02-22T05:47:21.392Z,99.90
2023-02-22T05:49:48.373Z,99.90
2023-02-22T05:52:15.222Z,99.90
2023-02-22T05:54:42.302Z,99.90
2023-02-22T05:57:09.388Z,99.90
2023-02-22T05:59:36.408Z,99.90
2023-02-22T06:02:03.473Z,99.90
2023-02-22T06:04:30.605Z,99.90
2023-02-22T06:06:57.655Z,99.90
2023-02-22T06:09:24.511Z,99.90
2023-02-22T06:11:54.360Z,99.90
2023-02-22T06:14:21.580Z,99.90
2023-02-22T06:16:56.212Z,99.90
2023-02-22T06:19:23.588Z,99.90
2023-02-22T06:21:52.232Z,99.90
2023-02-22T06:24:19.923Z,99.90
2023-02-22T06:26:47.463Z,99.90
2023-02-22T06:29:14.415Z,99.90
2023-02-22T06:31:41.298Z,99.90
2023-02-22T06:34:08.241Z,99.90
2023-02-22T06:36:35.193Z,99.90
2023-02-22T06:39:02.076Z,99.90
2023-02-22T06:41:29.540Z,99.90
2023-02-22T06:43:56.539Z,99.90
2023-02-22T06:46:23.383Z,99.90
2023-02-22T06:48:51.790Z,99.90
2023-02-22T06:51:19.079Z,99.90
2023-02-22T06:53:46.074Z,99.90
2023-02-22T06:56:12.930Z,99.90
2023-02-22T06:58:39.885Z,99.90
2023-02-22T07:01:08.205Z,99.90
2023-02-22T07:03:35.914Z,99.90
2023-02-22T07:06:04.450Z,99.90
2023-02-22T07:08:31.423Z,99.90
2023-02-22T07:10:58.329Z,99.90
2023-02-22T07:13:25.275Z,99.90
2023-02-22T07:15:53.296Z,99.90
2023-02-22T07:18:20.204Z,99.90
2023-02-22T07:20:47.192Z,99.90
2023-02-22T07:23:15.780Z,99.90
2023-02-22T07:25:43.107Z,99.90
2023-02-22T07:28:11.117Z,99.90
2023-02-22T07:30:38.192Z,99.90
2023-02-22T07:33:10.874Z,99.90
2023-02-22T07:35:43.494Z,99.90
2023-02-22T07:38:10.756Z,99.90
2023-02-22T07:40:39.092Z,99.90
2023-02-22T07:43:21.656Z,99.90
2023-02-22T07:45:51.164Z,99.90
2023-02-22T07:48:19.764Z,99.90
2023-02-22T07:50:47.306Z,99.90
2023-02-22T07:53:23.784Z,99.90
2023-02-22T07:55:51.261Z,99.90
2023-02-22T07:58:21.019Z,99.90
2023-02-22T08:00:50.668Z,99.90
2023-02-22T08:03:19.461Z,99.90
2023-02-22T08:05:52.132Z,99.90
2023-02-22T08:08:20.017Z,99.90
2023-02-22T08:10:47.596Z,99.90
2023-02-22T08:13:15.002Z,99.90
2023-02-22T08:15:44.295Z,99.90
2023-02-22T08:18:14.007Z,99.90
2023-02-22T08:20:42.750Z,99.90
2023-02-22T08:23:11.279Z,99.90
2023-02-22T08:25:38.398Z,99.90
2023-02-22T08:28:11.386Z,99.90
2023-02-22T08:30:40.524Z,99.90
2023-02-22T08:33:07.834Z,99.90
2023-02-22T08:35:34.926Z,99.90
2023-02-22T08:38:05.151Z,99.90
2023-02-22T08:40:34.905Z,99.90
2023-02-22T08:43:02.279Z,99.90
2023-02-22T08:45:29.422Z,99.90
2023-02-22T08:47:56.678Z,99.90
2023-02-22T08:50:29.402Z,99.90
2023-02-22T08:52:59.427Z,99.90
2023-02-22T08:55:30.118Z,99.90
2023-02-22T08:57:57.077Z,99.90
2023-02-22T09:00:25.334Z,99.90
2023-02-22T09:02:52.908Z,99.90
2023-02-22T09:05:20.538Z,99.90
2023-02-22T09:07:47.582Z,99.90
2023-02-22T09:10:17.534Z,99.90
2023-02-22T09:12:44.458Z,99.90
2023-02-22T09:15:11.803Z,99.90
2023-02-22T09:17:39.176Z,99.90
2023-02-22T09:20:07.753Z,99.90
2023-02-22T09:22:34.704Z,99.90
2023-02-22T09:25:11.343Z,99.90
2023-02-22T09:27:48.081Z,99.90
2023-02-22T09:30:35.254Z,99.90
2023-02-22T09:33:14.041Z,99.90
2023-02-22T09:35:42.693Z,99.90
2023-02-22T09:38:11.425Z,99.90
2023-02-22T09:40:45.295Z,99.90
2023-02-22T09:43:24.783Z,99.90
2023-02-22T09:46:06.082Z,99.90
2023-02-22T09:49:05.607Z,99.90
2023-02-22T09:51:49.586Z,99.90
2023-02-22T09:54:34.337Z,99.90
2023-02-22T09:57:08.757Z,99.90
2023-02-22T09:59:48.570Z,99.90
2023-02-22T10:02:26.910Z,99.90
2023-02-22T10:05:18.439Z,99.90
2023-02-22T10:07:58.300Z,99.90
2023-02-22T10:10:33.557Z,99.90
2023-02-22T10:13:16.574Z,99.90
2023-02-22T10:16:02.045Z,99.90
2023-02-22T10:18:48.138Z,99.90
2023-02-22T10:21:18.002Z,99.90
2023-02-22T10:24:41.508Z,99.90
2023-02-22T10:27:28.739Z,99.90
2023-02-22T10:30:12.721Z,99.90
2023-02-22T10:32:49.102Z,99.90
2023-02-22T10:35:23.925Z,99.90
2023-02-22T10:38:02.568Z,99.90
2023-02-22T10:40:32.641Z,99.90
2023-02-22T10:43:08.325Z,99.90
2023-02-22T10:45:37.103Z,99.90
2023-02-22T10:48:18.625Z,99.90
2023-02-22T10:50:46.758Z,99.90
2023-02-22T10:53:17.709Z,99.90
2023-02-22T10:56:21.585Z,99.90
2023-02-22T10:58:55.914Z,99.90
2023-02-22T11:01:37.242Z,99.90
2023-02-22T11:04:10.876Z,99.90
2023-02-22T11:06:40.010Z,99.90
2023-02-22T11:09:18.027Z,99.90
2023-02-22T11:11:49.544Z,99.90
2023-02-22T11:14:29.293Z,99.90
2023-02-22T11:16:58.002Z,99.90
2023-02-22T11:19:33.052Z,99.90
2023-02-22T11:22:12.058Z,99.90
2023-02-22T11:27:38.267Z,99.90
2023-02-22T11:30:08.312Z,99.90
2023-02-22T11:32:36.600Z,99.90
2023-02-22T11:35:31.768Z,99.90
2023-02-22T11:38:23.575Z,99.90
2023-02-22T11:41:18.960Z,99.90
2023-02-22T11:43:48.789Z,99.90
2023-02-22T11:46:30.208Z,99.90
2023-02-22T11:49:04.899Z,99.90
2023-02-22T11:51:53.712Z,99.90
2023-02-22T11:54:38.823Z,99.90
2023-02-22T11:57:30.035Z,99.90
2023-02-22T12:00:24.525Z,99.90
2023-02-22T12:03:06.624Z,99.90
2023-02-22T12:05:39.008Z,99.90
2023-02-22T12:08:28.274Z,99.90
2023-02-22T12:11:13.906Z,99.90
2023-02-22T12:13:59.210Z,99.90
2023-02-22T12:16:32.036Z,99.90
2023-02-22T12:19:05.414Z,99.90
2023-02-22T12:21:36.443Z,99.90
2023-02-22T12:24:08.673Z,99.90
2023-02-22T12:26:41.378Z,99.90
2023-02-22T12:29:37.719Z,99.90
2023-02-22T12:32:16.598Z,99.90
2023-02-22T12:34:55.128Z,99.90
2023-02-22T12:37:27.904Z,99.90
2023-02-22T12:40:14.833Z,99.90
2023-02-22T12:42:50.727Z,99.90
2023-02-22T12:45:43.203Z,99.90
2023-02-22T12:48:30.505Z,99.90
2023-02-22T12:51:12.582Z,99.90
2023-02-22T12:53:45.068Z,99.90
2023-02-22T12:56:26.001Z,99.90
2023-02-22T12:59:34.457Z,99.90
2023-02-22T13:02:13.738Z,99.90
2023-02-22T13:04:40.838Z,99.90
2023-02-22T13:07:18.771Z,99.90
2023-02-22T13:10:04.471Z,99.90
2023-02-22T13:12:53.916Z,99.90
2023-02-22T13:15:33.338Z,99.90
2023-02-22T13:19:11.110Z,99.90
2023-02-22T13:21:49.604Z,99.90
2023-02-22T13:24:23.765Z,99.90
2023-02-22T13:26:56.544Z,99.90
2023-02-22T13:29:41.720Z,99.90
2023-02-22T13:32:31.438Z,99.90
2023-02-22T13:35:10.580Z,99.90
2023-02-22T13:37:52.595Z,99.90
2023-02-22T13:40:41.448Z,99.90
2023-02-22T13:43:37.433Z,99.90
2023-02-22T13:46:20.051Z,99.90
2023-02-22T13:49:07.513Z,99.90
2023-02-22T13:51:39.610Z,99.90
2023-02-22T13:54:14.309Z,99.90
2023-02-22T13:56:46.304Z,99.90
2023-02-22T13:59:31.654Z,99.90
2023-02-22T14:02:00.663Z,99.90
2023-02-22T14:04:27.601Z,99.90
2023-02-22T14:07:01.116Z,99.90
2023-02-22T14:14:11.388Z,99.90
2023-02-22T14:16:38.487Z,99.90
2023-02-22T14:19:20.450Z,99.90
2023-02-22T14:22:02.620Z,99.90
2023-02-22T14:24:51.162Z,99.90
2023-02-22T14:27:18.626Z,99.90
2023-02-22T14:29:57.346Z,99.90
2023-02-22T14:32:35.689Z,99.90
2023-02-22T14:35:09.608Z,99.90
2023-02-22T14:37:42.828Z,99.90
2023-02-22T14:40:30.731Z,99.90
2023-02-22T14:43:16.044Z,99.90
2023-02-22T14:45:55.051Z,99.90
2023-02-22T14:48:28.433Z,99.90
2023-02-22T14:51:11.788Z,99.90
2023-02-22T14:53:57.574Z,99.90
2023-02-22T14:56:39.514Z,99.90
2023-02-22T14:59:24.161Z,99.90
2023-02-22T15:02:12.017Z,99.90
2023-02-22T15:04:43.865Z,99.90
2023-02-22T15:07:30.354Z,99.90
2023-02-22T15:10:21.723Z,99.90
2023-02-22T15:13:12.611Z,99.90
2023-02-22T15:15:49.093Z,99.90
2023-02-22T15:18:27.492Z,99.90
2023-02-22T15:20:58.252Z,99.90
2023-02-22T15:23:30.386Z,99.90
2023-02-22T15:25:58.075Z,99.90
2023-02-22T15:28:28.975Z,99.90
2023-02-22T15:31:22.837Z,99.90
2023-02-22T15:33:53.107Z,99.90
2023-02-22T15:36:22.804Z,99.90
2023-02-22T15:38:51.500Z,99.90
2023-02-22T15:41:29.281Z,99.90
2023-02-22T15:44:23.265Z,99.90
2023-02-22T15:46:52.241Z,99.90
2023-02-22T15:49:21.208Z,99.90
2023-02-22T15:52:02.628Z,99.90
2023-02-22T15:54:31.284Z,99.90
2023-02-22T15:56:59.744Z,99.90
2023-02-22T15:59:30.940Z,99.90
2023-02-22T16:01:59.296Z,99.90
2023-02-22T16:04:28.916Z,99.90
2023-02-22T16:07:16.987Z,99.90
2023-02-22T16:09:51.262Z,99.90
2023-02-22T16:12:20.935Z,99.90
2023-02-22T16:14:52.572Z,99.90
2023-02-22T16:17:25.815Z,99.90
2023-02-22T16:19:53.515Z,99.90
2023-02-22T16:22:33.822Z,99.90
2023-02-22T16:25:16.535Z,99.90
2023-02-22T16:27:48.658Z,99.90
2023-02-22T16:30:24.385Z,99.90
2023-02-22T16:32:54.018Z,99.90
2023-02-22T16:35:21.067Z,99.90
2023-02-22T16:37:54.840Z,99.90
2023-02-22T16:40:54.620Z,99.90
2023-02-22T16:43:32.734Z,99.90
2023-02-22T16:46:04.409Z,99.90
2023-02-22T16:48:32.997Z,99.90
2023-02-22T16:51:06.781Z,99.90
2023-02-22T16:53:34.036Z,99.90
2023-02-22T16:56:08.562Z,99.90
2023-02-22T16:58:38.678Z,99.90
2023-02-22T17:01:05.765Z,99.90
2023-02-22T17:03:32.741Z,99.90
2023-02-22T17:05:59.759Z,99.90
2023-02-22T17:08:26.949Z,99.90
2023-02-22T17:10:56.841Z,99.90
2023-02-22T17:13:27.457Z,99.90
2023-02-22T17:15:55.480Z,99.90
2023-02-22T17:18:24.887Z,99.90
2023-02-22T17:20:53.022Z,99.90
2023-02-22T17:23:20.600Z,99.90
2023-02-22T17:25:53.664Z,99.90
2023-02-22T17:28:24.771Z,99.90
2023-02-22T17:30:54.046Z,99.90
2023-02-22T17:33:26.741Z,99.90
2023-02-22T17:35:56.274Z,99.90
2023-02-22T17:38:23.463Z,99.90
2023-02-22T17:40:54.812Z,99.90
2023-02-22T17:43:22.536Z,99.90
2023-02-22T17:45:49.562Z,99.90
2023-02-22T17:48:18.062Z,99.90
2023-02-22T17:50:46.736Z,99.90
2023-02-22T17:53:14.113Z,99.90
2023-02-22T17:55:42.519Z,99.90
2023-02-22T17:58:14.668Z,99.90
2023-02-22T18:00:47.306Z,99.90
2023-02-22T18:03:21.203Z,99.90
2023-02-22T18:05:50.264Z,99.90
2023-02-22T18:08:17.562Z,99.90
2023-02-22T18:10:45.575Z,99.90
2023-02-22T18:13:14.024Z,99.90
2023-02-22T18:15:40.837Z,99.90
2023-02-22T18:18:07.844Z,99.90
2023-02-22T18:20:43.405Z,99.90
2023-02-22T18:23:19.670Z,99.90
2023-02-22T18:26:03.721Z,99.90
2023-02-22T18:28:36.062Z,99.90
2023-02-22T18:31:14.638Z,99.90
2023-02-22T18:33:43.294Z,99.90
2023-02-22T18:36:14.518Z,99.90
2023-02-22T18:38:43.227Z,99.90
2023-02-22T18:41:15.784Z,99.90
2023-02-22T18:43:43.149Z,99.90
2023-02-22T18:46:13.022Z,99.90
2023-02-22T18:48:40.350Z,99.90
2023-02-22T18:51:10.393Z,99.90
2023-02-22T18:53:38.654Z,99.90
2023-02-22T18:56:14.224Z,99.90
2023-02-22T18:58:43.306Z,99.90
2023-02-22T19:01:18.993Z,99.90
2023-02-22T19:03:48.831Z,99.90
2023-02-22T19:06:17.179Z,99.90
2023-02-22T19:08:45.458Z,99.90
2023-02-22T19:11:19.242Z,99.90
2023-02-22T19:13:47.974Z,99.90
2023-02-22T19:16:17.078Z,99.90
2023-02-22T19:18:44.233Z,99.90
2023-02-22T19:21:14.010Z,99.90
2023-02-22T19:23:45.663Z,99.90
2023-02-22T19:26:23.759Z,99.90
2023-02-22T19:28:52.977Z,99.90
2023-02-22T19:31:40.043Z,99.90
2023-02-22T19:34:10.380Z,99.90
2023-02-22T19:36:43.292Z,99.90
2023-02-22T19:39:10.518Z,99.90
2023-02-22T19:41:38.368Z,99.90
2023-02-22T19:44:05.737Z,99.90
2023-02-22T19:46:33.030Z,99.90
2023-02-22T19:49:01.858Z,99.90
2023-02-22T19:51:30.400Z,99.90
2023-02-22T19:53:59.992Z,99.90
2023-02-22T19:56:27.441Z,99.90
2023-02-22T19:58:56.763Z,99.90
2023-02-22T20:01:24.804Z,99.90
2023-02-22T20:03:54.360Z,99.90
2023-02-22T20:06:28.190Z,99.90
2023-02-22T20:08:56.341Z,99.90
2023-02-22T20:11:23.759Z,99.90
2023-02-22T20:13:51.181Z,99.90
2023-02-22T20:16:18.199Z,99.90
2023-02-22T20:18:47.163Z,99.90
2023-02-22T20:21:26.371Z,99.90
2023-02-22T20:23:57.111Z,99.90
2023-02-22T20:26:25.667Z,99.90
2023-02-22T20:28:52.925Z,99.90
2023-02-22T20:31:21.555Z,99.90
2023-02-22T20:33:56.741Z,99.90
2023-02-22T20:36:24.961Z,99.90
2023-02-22T20:38:57.224Z,99.90
2023-02-22T20:41:25.216Z,99.90
2023-02-22T20:43:53.452Z,99.90
2023-02-22T20:46:20.361Z,99.90
2023-02-22T20:48:47.319Z,99.90
2023-02-22T20:51:15.556Z,99.90
2023-02-22T20:53:45.124Z,99.90
2023-02-22T20:56:13.868Z,99.90
2023-02-22T20:58:41.625Z,99.90
2023-02-22T21:01:12.178Z,99.90
2023-02-22T21:03:39.006Z,99.90
2023-02-22T21:06:06.637Z,99.90
2023-02-22T21:08:33.677Z,99.90
2023-02-22T21:11:00.631Z,99.90
2023-02-22T21:13:27.596Z,99.90
2023-02-22T21:15:54.542Z,99.90
2023-02-22T21:18:24.682Z,99.90
2023-02-22T21:20:51.856Z,99.90
2023-02-22T21:23:18.698Z,99.90
2023-02-22T21:25:55.040Z,99.90
2023-02-22T21:28:22.309Z,99.90
2023-02-22T21:30:50.046Z,99.90
2023-02-22T21:33:17.021Z,99.90
2023-02-22T21:35:47.289Z,99.90
2023-02-22T21:38:14.573Z,99.90
2023-02-22T21:40:42.614Z,99.90
2023-02-22T21:43:12.807Z,99.90
2023-02-22T21:45:39.707Z,99.90
2023-02-22T21:48:06.706Z,99.90
2023-02-22T21:50:37.760Z,99.90
2023-02-22T21:53:05.960Z,99.90
2023-02-22T21:55:33.988Z,99.90
2023-02-22T21:58:00.940Z,99.90
2023-02-22T22:00:35.374Z,99.90
2023-02-22T22:03:12.800Z,99.90
2023-02-22T22:05:40.349Z,99.90
2023-02-22T22:08:13.372Z,99.90
2023-02-22T22:10:40.139Z,99.90
2023-02-22T22:13:09.125Z,99.90
2023-02-22T22:15:37.417Z,99.90
2023-02-22T22:18:08.123Z,99.90
2023-02-22T22:20:38.669Z,99.90
2023-02-22T22:23:07.056Z,99.90
2023-02-22T22:25:38.098Z,99.90
2023-02-22T22:28:09.905Z,99.90
2023-02-22T22:30:37.741Z,99.90
2023-02-22T22:33:11.423Z,99.90
2023-02-22T22:35:39.466Z,99.90
2023-02-22T22:38:06.851Z,99.90
2023-02-22T22:40:34.369Z,99.90
2023-02-22T22:43:01.191Z,99.90
2023-02-22T22:45:28.034Z,99.90
2023-02-22T22:47:54.875Z,99.90
2023-02-22T22:50:26.565Z,99.90
2023-02-22T22:52:55.701Z,99.90
2023-02-22T22:55:24.327Z,99.90
2023-02-22T22:57:54.036Z,99.90
2023-02-22T23:00:33.542Z,99.90
2023-02-22T23:03:00.767Z,99.90
2023-02-22T23:05:29.244Z,99.90
2023-02-22T23:07:56.948Z,99.90
2023-02-22T23:10:27.500Z,99.90
2023-02-22T23:12:56.532Z,99.90
2023-02-22T23:15:25.190Z,99.90
2023-02-22T23:17:56.203Z,99.90
2023-02-22T23:20:26.335Z,99.90
2023-02-22T23:22:54.252Z,99.90
2023-02-22T23:25:21.930Z,99.90
2023-02-22T23:27:49.780Z,99.90
2023-02-22T23:30:18.705Z,99.90
2023-02-22T23:32:46.783Z,99.90
2023-02-22T23:35:14.900Z,99.90
2023-02-22T23:37:42.548Z,99.90
2023-02-22T23:40:18.997Z,99.90
2023-02-22T23:42:55.876Z,99.90
2023-02-22T23:45:24.237Z,99.90
2023-02-22T23:47:55.186Z,99.90
2023-02-22T23:50:26.681Z,99.90
2023-02-22T23:52:58.252Z,99.90
2023-02-22T23:55:31.627Z,99.90
2023-02-22T23:57:59.659Z,99.90
